sensor_id;sensor_type;location;lat;lon;timestamp;P1;durP1;ratioP1;P2;durP2;ratioP2
33836;SDS011;20140;49.356;8.812;2024-01-11T16:10:08;29.40;;;18.00;;
33836;SDS011;20140;49.356;8.812;2024-01-11T16:12:34;20.98;;;15.15;;
33836;SDS011;20140;49.356;8.812;2024-01-11T16:15:00;22.37;;;15.57;;
33836;SDS011;20140;49.356;8.812;2024-01-11T16:17:26;26.50;;;16.60;;
33836;SDS011;20140;49.356;8.812;2024-01-11T16:19:52;23.27;;;14.95;;
33836;SDS011;20140;49.356;8.812;2024-01-11T16:22:17;25.85;;;15.52;;
33836;SDS011;20140;49.356;8.812;2024-01-11T16:24:45;25.52;;;15.48;;
33836;SDS011;20140;49.356;8.812;2024-01-11T16:27:11;24.73;;;15.02;;
33836;SDS011;20140;49.356;8.812;2024-01-11T16:29:38;27.33;;;17.07;;
33836;SDS011;20140;49.356;8.812;2024-01-11T16:32:04;28.42;;;16.27;;
33836;SDS011;20140;49.356;8.812;2024-01-11T16:34:30;22.87;;;15.33;;
33836;SDS011;20140;49.356;8.812;2024-01-11T16:36:56;22.63;;;14.15;;
33836;SDS011;20140;49.356;8.812;2024-01-11T16:39:21;22.03;;;13.23;;
33836;SDS011;20140;49.356;8.812;2024-01-11T16:41:47;26.17;;;14.83;;
33836;SDS011;20140;49.356;8.812;2024-01-11T16:44:12;25.00;;;17.05;;
33836;SDS011;20140;49.356;8.812;2024-01-11T16:46:38;20.90;;;14.63;;
33836;SDS011;20140;49.356;8.812;2024-01-11T16:49:04;23.95;;;15.63;;
33836;SDS011;20140;49.356;8.812;2024-01-11T16:51:29;24.83;;;15.65;;
33836;SDS011;20140;49.356;8.812;2024-01-11T16:53:55;25.05;;;15.68;;
33836;SDS011;20140;49.356;8.812;2024-01-11T16:56:21;21.23;;;14.07;;
33836;SDS011;20140;49.356;8.812;2024-01-11T16:58:47;17.45;;;13.07;;
33836;SDS011;20140;49.356;8.812;2024-01-11T17:01:12;21.47;;;13.67;;
33836;SDS011;20140;49.356;8.812;2024-01-11T17:03:38;20.65;;;14.63;;
33836;SDS011;20140;49.356;8.812;2024-01-11T17:06:03;21.88;;;13.98;;
33836;SDS011;20140;49.356;8.812;2024-01-11T17:08:29;23.85;;;14.73;;
33836;SDS011;20140;49.356;8.812;2024-01-11T17:10:55;25.00;;;14.90;;
33836;SDS011;20140;49.356;8.812;2024-01-11T17:13:20;22.40;;;14.00;;
33836;SDS011;20140;49.356;8.812;2024-01-11T17:15:47;21.25;;;12.90;;
33836;SDS011;20140;49.356;8.812;2024-01-11T17:18:13;17.77;;;12.17;;
33836;SDS011;20140;49.356;8.812;2024-01-11T17:20:41;18.88;;;12.93;;
33836;SDS011;20140;49.356;8.812;2024-01-11T17:23:06;18.67;;;12.63;;
33836;SDS011;20140;49.356;8.812;2024-01-11T17:25:32;18.98;;;11.27;;
33836;SDS011;20140;49.356;8.812;2024-01-11T17:27:57;19.70;;;12.77;;
33836;SDS011;20140;49.356;8.812;2024-01-11T17:30:23;19.90;;;13.73;;
33836;SDS011;20140;49.356;8.812;2024-01-11T17:32:48;22.07;;;14.07;;
33836;SDS011;20140;49.356;8.812;2024-01-11T17:35:16;23.55;;;12.80;;
33836;SDS011;20140;49.356;8.812;2024-01-11T17:37:41;19.93;;;13.43;;
33836;SDS011;20140;49.356;8.812;2024-01-11T17:40:07;19.23;;;12.83;;
33836;SDS011;20140;49.356;8.812;2024-01-11T17:42:33;20.65;;;13.48;;
33836;SDS011;20140;49.356;8.812;2024-01-11T17:45:02;17.70;;;13.05;;
33836;SDS011;20140;49.356;8.812;2024-01-11T17:47:29;18.05;;;12.80;;
33836;SDS011;20140;49.356;8.812;2024-01-11T17:49:56;21.40;;;14.02;;
33836;SDS011;20140;49.356;8.812;2024-01-11T17:52:22;20.10;;;14.27;;
33836;SDS011;20140;49.356;8.812;2024-01-11T17:54:47;41.17;;;27.63;;
33836;SDS011;20140;49.356;8.812;2024-01-11T17:57:13;44.17;;;29.17;;
33836;SDS011;20140;49.356;8.812;2024-01-11T17:59:39;25.23;;;16.42;;
33836;SDS011;20140;49.356;8.812;2024-01-11T18:02:08;26.20;;;17.07;;
33836;SDS011;20140;49.356;8.812;2024-01-11T18:04:36;28.05;;;16.98;;
33836;SDS011;20140;49.356;8.812;2024-01-11T18:07:01;27.42;;;16.25;;
33836;SDS011;20140;49.356;8.812;2024-01-11T18:09:28;25.17;;;18.33;;
33836;SDS011;20140;49.356;8.812;2024-01-11T18:11:53;21.80;;;13.93;;
33836;SDS011;20140;49.356;8.812;2024-01-11T18:14:20;19.67;;;14.35;;
33836;SDS011;20140;49.356;8.812;2024-01-11T18:16:46;27.03;;;17.70;;
33836;SDS011;20140;49.356;8.812;2024-01-11T18:19:11;29.83;;;20.90;;
33836;SDS011;20140;49.356;8.812;2024-01-11T18:21:38;34.90;;;23.33;;
33836;SDS011;20140;49.356;8.812;2024-01-11T18:24:05;23.42;;;16.13;;
33836;SDS011;20140;49.356;8.812;2024-01-11T18:26:31;20.67;;;15.18;;
33836;SDS011;20140;49.356;8.812;2024-01-11T18:28:57;24.25;;;15.82;;
33836;SDS011;20140;49.356;8.812;2024-01-11T18:31:23;26.08;;;16.95;;
33836;SDS011;20140;49.356;8.812;2024-01-11T18:33:49;25.73;;;17.37;;
33836;SDS011;20140;49.356;8.812;2024-01-11T18:36:19;23.77;;;17.70;;
33836;SDS011;20140;49.356;8.812;2024-01-11T18:38:45;21.48;;;14.93;;
33836;SDS011;20140;49.356;8.812;2024-01-11T18:41:12;23.85;;;15.02;;
33836;SDS011;20140;49.356;8.812;2024-01-11T18:43:39;24.40;;;14.63;;
33836;SDS011;20140;49.356;8.812;2024-01-11T18:46:05;24.02;;;14.65;;
33836;SDS011;20140;49.356;8.812;2024-01-11T18:48:32;24.10;;;15.33;;
33836;SDS011;20140;49.356;8.812;2024-01-11T18:51:02;24.73;;;16.38;;
33836;SDS011;20140;49.356;8.812;2024-01-11T18:53:30;25.57;;;17.17;;
33836;SDS011;20140;49.356;8.812;2024-01-11T18:55:59;26.10;;;16.92;;
33836;SDS011;20140;49.356;8.812;2024-01-11T18:58:28;23.60;;;15.73;;
33836;SDS011;20140;49.356;8.812;2024-01-11T19:00:55;20.52;;;13.48;;
33836;SDS011;20140;49.356;8.812;2024-01-11T19:03:21;18.00;;;13.20;;
33836;SDS011;20140;49.356;8.812;2024-01-11T19:05:49;22.15;;;14.57;;
33836;SDS011;20140;49.356;8.812;2024-01-11T19:08:14;21.33;;;13.77;;
33836;SDS011;20140;49.356;8.812;2024-01-11T19:10:41;19.95;;;13.75;;
33836;SDS011;20140;49.356;8.812;2024-01-11T19:13:07;30.10;;;20.63;;
33836;SDS011;20140;49.356;8.812;2024-01-11T19:15:32;33.97;;;19.73;;
33836;SDS011;20140;49.356;8.812;2024-01-11T19:17:59;26.83;;;18.52;;
33836;SDS011;20140;49.356;8.812;2024-01-11T19:20:25;25.65;;;15.95;;
33836;SDS011;20140;49.356;8.812;2024-01-11T19:22:51;17.73;;;12.45;;
33836;SDS011;20140;49.356;8.812;2024-01-11T19:25:19;18.73;;;11.60;;
33836;SDS011;20140;49.356;8.812;2024-01-11T19:27:44;20.27;;;13.27;;
33836;SDS011;20140;49.356;8.812;2024-01-11T19:30:10;15.10;;;11.93;;
33836;SDS011;20140;49.356;8.812;2024-01-11T19:32:38;17.23;;;11.60;;
33836;SDS011;20140;49.356;8.812;2024-01-11T19:35:05;14.13;;;9.85;;
33836;SDS011;20140;49.356;8.812;2024-01-11T19:37:33;17.77;;;11.70;;
33836;SDS011;20140;49.356;8.812;2024-01-11T19:40:01;15.45;;;10.85;;
33836;SDS011;20140;49.356;8.812;2024-01-11T19:42:29;14.88;;;10.18;;
33836;SDS011;20140;49.356;8.812;2024-01-11T19:44:56;16.02;;;10.63;;
33836;SDS011;20140;49.356;8.812;2024-01-11T19:47:25;17.58;;;11.55;;
33836;SDS011;20140;49.356;8.812;2024-01-11T19:49:50;19.83;;;12.20;;
33836;SDS011;20140;49.356;8.812;2024-01-11T19:52:18;20.73;;;15.32;;
33836;SDS011;20140;49.356;8.812;2024-01-11T19:54:45;21.67;;;14.55;;
33836;SDS011;20140;49.356;8.812;2024-01-11T19:57:11;18.92;;;13.60;;
33836;SDS011;20140;49.356;8.812;2024-01-11T19:59:38;20.27;;;12.97;;
33836;SDS011;20140;49.356;8.812;2024-01-11T20:02:08;17.30;;;12.83;;
33836;SDS011;20140;49.356;8.812;2024-01-11T20:04:38;16.35;;;11.13;;
33836;SDS011;20140;49.356;8.812;2024-01-11T20:07:04;15.80;;;11.17;;
33836;SDS011;20140;49.356;8.812;2024-01-11T20:09:35;17.88;;;12.55;;
33836;SDS011;20140;49.356;8.812;2024-01-11T20:12:01;19.38;;;12.95;;
33836;SDS011;20140;49.356;8.812;2024-01-11T20:14:27;18.63;;;14.00;;
33836;SDS011;20140;49.356;8.812;2024-01-11T20:16:53;15.75;;;10.75;;
33836;SDS011;20140;49.356;8.812;2024-01-11T20:19:18;14.30;;;10.68;;
33836;SDS011;20140;49.356;8.812;2024-01-11T20:21:45;18.95;;;12.75;;
33836;SDS011;20140;49.356;8.812;2024-01-11T20:24:12;16.65;;;12.15;;
33836;SDS011;20140;49.356;8.812;2024-01-11T20:26:40;21.20;;;13.77;;
33836;SDS011;20140;49.356;8.812;2024-01-11T20:29:07;17.63;;;13.90;;
33836;SDS011;20140;49.356;8.812;2024-01-11T20:31:35;16.10;;;12.63;;
33836;SDS011;20140;49.356;8.812;2024-01-11T20:34:02;22.53;;;13.60;;
33836;SDS011;20140;49.356;8.812;2024-01-11T20:36:31;19.17;;;13.70;;
33836;SDS011;20140;49.356;8.812;2024-01-11T20:38:56;18.50;;;13.30;;
33836;SDS011;20140;49.356;8.812;2024-01-11T20:41:23;18.45;;;12.63;;
33836;SDS011;20140;49.356;8.812;2024-01-11T20:43:49;15.90;;;10.73;;
33836;SDS011;20140;49.356;8.812;2024-01-11T20:46:18;16.88;;;11.52;;
33836;SDS011;20140;49.356;8.812;2024-01-11T20:48:50;19.08;;;11.85;;
33836;SDS011;20140;49.356;8.812;2024-01-11T20:51:17;18.38;;;11.30;;
33836;SDS011;20140;49.356;8.812;2024-01-11T20:53:44;21.17;;;12.90;;
33836;SDS011;20140;49.356;8.812;2024-01-11T20:56:11;15.68;;;11.23;;
33836;SDS011;20140;49.356;8.812;2024-01-11T20:58:39;16.00;;;11.50;;
33836;SDS011;20140;49.356;8.812;2024-01-11T21:01:04;15.67;;;12.33;;
33836;SDS011;20140;49.356;8.812;2024-01-11T21:03:31;18.53;;;13.87;;
33836;SDS011;20140;49.356;8.812;2024-01-11T21:06:00;19.48;;;12.88;;
33836;SDS011;20140;49.356;8.812;2024-01-11T21:08:26;16.80;;;11.95;;
33836;SDS011;20140;49.356;8.812;2024-01-11T21:10:52;18.25;;;12.57;;
33836;SDS011;20140;49.356;8.812;2024-01-11T21:13:18;18.38;;;12.15;;
33836;SDS011;20140;49.356;8.812;2024-01-11T21:15:45;19.92;;;12.93;;
33836;SDS011;20140;49.356;8.812;2024-01-11T21:18:12;18.70;;;13.43;;
33836;SDS011;20140;49.356;8.812;2024-01-11T21:20:39;19.03;;;13.83;;
33836;SDS011;20140;49.356;8.812;2024-01-11T21:23:08;19.80;;;15.65;;
33836;SDS011;20140;49.356;8.812;2024-01-11T21:25:36;21.60;;;14.95;;
33836;SDS011;20140;49.356;8.812;2024-01-11T21:28:04;20.50;;;14.50;;
33836;SDS011;20140;49.356;8.812;2024-01-11T21:30:30;18.33;;;13.18;;
33836;SDS011;20140;49.356;8.812;2024-01-11T21:32:58;19.48;;;13.35;;
33836;SDS011;20140;49.356;8.812;2024-01-11T21:35:24;17.83;;;13.48;;
33836;SDS011;20140;49.356;8.812;2024-01-11T21:37:50;23.13;;;14.35;;
33836;SDS011;20140;49.356;8.812;2024-01-11T21:40:15;20.50;;;13.70;;
33836;SDS011;20140;49.356;8.812;2024-01-11T21:42:44;18.88;;;12.50;;
33836;SDS011;20140;49.356;8.812;2024-01-11T21:45:11;22.38;;;15.07;;
33836;SDS011;20140;49.356;8.812;2024-01-11T21:47:37;19.17;;;13.77;;
33836;SDS011;20140;49.356;8.812;2024-01-11T21:50:05;23.38;;;15.70;;
33836;SDS011;20140;49.356;8.812;2024-01-11T21:52:35;21.93;;;14.20;;
33836;SDS011;20140;49.356;8.812;2024-01-11T21:55:01;22.10;;;14.43;;
33836;SDS011;20140;49.356;8.812;2024-01-11T21:57:30;18.73;;;14.73;;
33836;SDS011;20140;49.356;8.812;2024-01-11T21:59:57;20.67;;;14.00;;
33836;SDS011;20140;49.356;8.812;2024-01-11T22:02:24;21.50;;;13.87;;
33836;SDS011;20140;49.356;8.812;2024-01-11T22:04:51;16.48;;;12.02;;
33836;SDS011;20140;49.356;8.812;2024-01-11T22:07:17;17.13;;;13.45;;
33836;SDS011;20140;49.356;8.812;2024-01-11T22:09:43;18.20;;;12.27;;
33836;SDS011;20140;49.356;8.812;2024-01-11T22:12:09;18.45;;;13.02;;
33836;SDS011;20140;49.356;8.812;2024-01-11T22:14:35;16.95;;;12.73;;
33836;SDS011;20140;49.356;8.812;2024-01-11T22:17:05;21.25;;;15.65;;
33836;SDS011;20140;49.356;8.812;2024-01-11T22:19:31;19.98;;;13.20;;
33836;SDS011;20140;49.356;8.812;2024-01-11T22:22:00;19.42;;;12.80;;
33836;SDS011;20140;49.356;8.812;2024-01-11T22:24:29;18.27;;;13.23;;
33836;SDS011;20140;49.356;8.812;2024-01-11T22:26:55;21.63;;;14.53;;
33836;SDS011;20140;49.356;8.812;2024-01-11T22:29:22;22.27;;;15.10;;
33836;SDS011;20140;49.356;8.812;2024-01-11T22:31:49;19.77;;;12.93;;
33836;SDS011;20140;49.356;8.812;2024-01-11T22:34:16;18.43;;;12.97;;
33836;SDS011;20140;49.356;8.812;2024-01-11T22:36:47;19.73;;;13.80;;
33836;SDS011;20140;49.356;8.812;2024-01-11T22:39:13;17.40;;;12.03;;
33836;SDS011;20140;49.356;8.812;2024-01-11T22:41:39;16.83;;;12.57;;
33836;SDS011;20140;49.356;8.812;2024-01-11T22:44:05;19.70;;;12.95;;
33836;SDS011;20140;49.356;8.812;2024-01-11T22:46:31;16.48;;;11.18;;
33836;SDS011;20140;49.356;8.812;2024-01-11T22:48:59;14.13;;;10.38;;
33836;SDS011;20140;49.356;8.812;2024-01-11T22:51:34;15.55;;;11.05;;
33836;SDS011;20140;49.356;8.812;2024-01-11T22:54:00;18.00;;;13.70;;
33836;SDS011;20140;49.356;8.812;2024-01-11T22:56:27;19.20;;;12.63;;
33836;SDS011;20140;49.356;8.812;2024-01-11T22:58:53;19.75;;;13.00;;
33836;SDS011;20140;49.356;8.812;2024-01-11T23:01:20;16.67;;;12.37;;
33836;SDS011;20140;49.356;8.812;2024-01-11T23:03:55;15.27;;;10.82;;
33836;SDS011;20140;49.356;8.812;2024-01-11T23:06:22;16.58;;;11.80;;
33836;SDS011;20140;49.356;8.812;2024-01-11T23:08:49;14.05;;;10.00;;
33836;SDS011;20140;49.356;8.812;2024-01-11T23:11:15;18.13;;;11.40;;
33836;SDS011;20140;49.356;8.812;2024-01-11T23:13:40;14.43;;;10.77;;
33836;SDS011;20140;49.356;8.812;2024-01-11T23:16:08;12.68;;;9.38;;
33836;SDS011;20140;49.356;8.812;2024-01-11T23:18:34;15.60;;;11.55;;
33836;SDS011;20140;49.356;8.812;2024-01-11T23:21:08;16.40;;;10.57;;
33836;SDS011;20140;49.356;8.812;2024-01-11T23:23:34;13.88;;;10.07;;
33836;SDS011;20140;49.356;8.812;2024-01-11T23:26:00;10.95;;;9.35;;
33836;SDS011;20140;49.356;8.812;2024-01-11T23:28:28;13.07;;;9.98;;
33836;SDS011;20140;49.356;8.812;2024-01-11T23:30:55;13.70;;;9.98;;
33836;SDS011;20140;49.356;8.812;2024-01-11T23:33:20;13.18;;;10.00;;
33836;SDS011;20140;49.356;8.812;2024-01-11T23:35:48;15.20;;;10.47;;
33836;SDS011;20140;49.356;8.812;2024-01-11T23:38:16;12.23;;;9.30;;
33836;SDS011;20140;49.356;8.812;2024-01-11T23:40:41;17.00;;;10.90;;
33836;SDS011;20140;49.356;8.812;2024-01-11T23:43:07;13.40;;;10.07;;
33836;SDS011;20140;49.356;8.812;2024-01-11T23:45:34;16.13;;;10.73;;
33836;SDS011;20140;49.356;8.812;2024-01-11T23:48:01;13.85;;;10.50;;
33836;SDS011;20140;49.356;8.812;2024-01-11T23:50:26;18.77;;;11.13;;
33836;SDS011;20140;49.356;8.812;2024-01-11T23:52:52;12.60;;;9.37;;
33836;SDS011;20140;49.356;8.812;2024-01-11T23:55:17;16.60;;;10.17;;
33836;SDS011;20140;49.356;8.812;2024-01-11T23:57:43;12.57;;;8.53;;
